createdAt,value
2019-04-30T00:00:47.257Z,15.90
2019-04-30T00:03:26.865Z,16.73
2019-04-30T00:05:57.520Z,15.58
2019-04-30T00:08:30.145Z,16.07
2019-04-30T00:10:56.889Z,17.75
2019-04-30T00:13:25.929Z,19.57
2019-04-30T00:15:58.758Z,17.48
2019-04-30T00:18:25.617Z,17.87
2019-04-30T00:20:55.333Z,19.35
2019-04-30T00:23:27.246Z,20.00
2019-04-30T00:25:58.263Z,18.80
2019-04-30T00:28:25.829Z,16.37
2019-04-30T00:30:56.177Z,18.52
2019-04-30T00:33:27.613Z,17.23
2019-04-30T00:35:57.998Z,19.30
2019-04-30T00:38:29.634Z,20.10
2019-04-30T00:40:57.858Z,18.32
2019-04-30T00:43:27.674Z,18.32
2019-04-30T00:45:56.559Z,19.60
2019-04-30T00:48:29.681Z,19.85
2019-04-30T00:50:56.023Z,23.85
2019-04-30T00:53:26.223Z,19.92
2019-04-30T00:55:55.608Z,19.07
2019-04-30T00:58:30.246Z,21.02
2019-04-30T01:01:04.879Z,22.20
2019-04-30T01:03:32.823Z,18.67
2019-04-30T01:06:01.742Z,20.10
2019-04-30T01:08:30.623Z,19.87
2019-04-30T01:10:59.838Z,21.57
2019-04-30T01:13:30.072Z,19.95
2019-04-30T01:15:59.013Z,23.05
2019-04-30T01:18:31.809Z,24.72
2019-04-30T01:20:58.773Z,22.00
2019-04-30T01:23:29.611Z,20.35
2019-04-30T01:25:58.819Z,20.45
2019-04-30T01:28:28.434Z,24.50
2019-04-30T01:31:01.920Z,24.05
2019-04-30T01:33:34.563Z,23.55
2019-04-30T01:36:04.200Z,24.32
2019-04-30T01:38:31.490Z,22.25
2019-04-30T01:41:00.411Z,20.43
2019-04-30T01:43:33.098Z,23.50
2019-04-30T01:46:01.967Z,23.57
2019-04-30T01:48:30.457Z,21.50
2019-04-30T01:51:01.104Z,21.33
2019-04-30T01:53:29.924Z,21.15
2019-04-30T01:56:03.333Z,19.48
2019-04-30T01:58:33.821Z,19.98
2019-04-30T02:01:13.553Z,22.70
2019-04-30T02:03:42.484Z,22.95
2019-04-30T02:06:11.583Z,22.62
2019-04-30T02:08:40.606Z,25.45
2019-04-30T02:11:09.495Z,24.32
2019-04-30T02:13:39.248Z,23.25
2019-04-30T02:16:08.619Z,24.85
2019-04-30T02:18:39.383Z,24.52
2019-04-30T02:21:09.313Z,24.52
2019-04-30T02:23:39.309Z,24.50
2019-04-30T02:26:08.679Z,24.70
2019-04-30T02:28:39.349Z,26.80
2019-04-30T02:31:09.274Z,27.62
2019-04-30T02:33:40.526Z,26.73
2019-04-30T02:36:11.218Z,25.55
2019-04-30T02:38:41.717Z,27.32
2019-04-30T02:41:11.421Z,30.82
2019-04-30T02:43:42.361Z,27.90
2019-04-30T02:46:13.292Z,27.00
2019-04-30T02:48:44.896Z,27.98
2019-04-30T02:51:15.231Z,27.67
2019-04-30T02:53:50.587Z,29.92
2019-04-30T02:56:20.448Z,30.88
2019-04-30T02:58:50.594Z,28.25
2019-04-30T03:01:20.419Z,32.93
2019-04-30T03:03:50.137Z,31.95
2019-04-30T03:06:20.364Z,30.92
2019-04-30T03:08:51.058Z,31.42
2019-04-30T03:11:20.979Z,32.65
2019-04-30T03:13:50.120Z,33.55
2019-04-30T03:16:26.895Z,31.07
2019-04-30T03:19:06.274Z,35.80
2019-04-30T03:21:50.197Z,38.33
2019-04-30T03:24:20.278Z,32.63
2019-04-30T03:26:50.040Z,33.28
2019-04-30T03:29:23.416Z,31.95
2019-04-30T03:31:52.380Z,34.20
2019-04-30T03:34:25.712Z,31.87
2019-04-30T03:36:51.488Z,35.40
2019-04-30T03:39:23.106Z,37.83
2019-04-30T03:41:52.035Z,40.10
2019-04-30T03:44:25.586Z,36.58
2019-04-30T03:46:51.520Z,35.95
2019-04-30T03:49:20.526Z,35.98
2019-04-30T03:51:49.978Z,35.92
2019-04-30T03:54:19.489Z,40.80
2019-04-30T03:56:50.234Z,36.03
2019-04-30T03:59:19.958Z,34.23
2019-04-30T04:01:50.694Z,33.23
2019-04-30T04:04:24.290Z,31.25
2019-04-30T04:07:13.345Z,30.17
2019-04-30T04:09:46.560Z,32.28
2019-04-30T04:15:00.716Z,30.68
2019-04-30T04:17:31.117Z,27.98
2019-04-30T04:19:59.896Z,32.50
2019-04-30T04:22:30.630Z,30.55
2019-04-30T04:25:00.198Z,32.73
2019-04-30T04:27:30.153Z,31.70
2019-04-30T04:30:01.154Z,38.25
2019-04-30T04:32:30.945Z,32.95
2019-04-30T04:35:00.494Z,31.27
2019-04-30T04:37:30.376Z,32.25
2019-04-30T04:39:59.814Z,29.72
2019-04-30T04:42:32.348Z,31.42
2019-04-30T04:44:59.738Z,33.48
2019-04-30T04:47:30.793Z,32.30
2019-04-30T04:50:00.687Z,31.30
2019-04-30T04:52:31.575Z,29.50
2019-04-30T04:55:00.778Z,26.48
2019-04-30T04:57:30.347Z,28.35
2019-04-30T05:00:06.849Z,28.35
2019-04-30T05:02:43.289Z,28.67
2019-04-30T05:05:13.826Z,30.97
2019-04-30T05:07:43.947Z,29.18
2019-04-30T05:10:14.648Z,27.27
2019-04-30T05:12:44.505Z,22.93
2019-04-30T05:15:15.239Z,24.15
2019-04-30T05:17:45.681Z,30.30
2019-04-30T05:20:15.996Z,27.62
2019-04-30T05:22:46.517Z,28.27
2019-04-30T05:25:18.457Z,26.05
2019-04-30T05:27:50.035Z,28.55
2019-04-30T05:30:20.002Z,26.10
2019-04-30T05:32:51.013Z,25.23
2019-04-30T05:35:21.818Z,26.27
2019-04-30T05:37:51.659Z,23.38
2019-04-30T05:40:20.693Z,24.23
2019-04-30T05:42:49.752Z,23.27
2019-04-30T05:45:19.231Z,23.40
2019-04-30T05:47:50.189Z,27.20
2019-04-30T05:50:19.994Z,22.15
2019-04-30T05:52:49.418Z,27.62
2019-04-30T05:55:19.756Z,27.65
2019-04-30T05:57:55.794Z,24.40
2019-04-30T06:00:19.907Z,26.52
2019-04-30T06:02:49.711Z,27.15
2019-04-30T06:05:19.033Z,30.45
2019-04-30T06:07:51.675Z,26.33
2019-04-30T06:10:36.656Z,27.75
2019-04-30T06:13:10.174Z,24.18
2019-04-30T06:15:58.858Z,25.05
2019-04-30T06:18:28.687Z,24.60
2019-04-30T06:20:59.464Z,24.87
2019-04-30T06:23:29.421Z,27.55
2019-04-30T06:26:06.913Z,25.40
2019-04-30T06:28:29.972Z,25.75
2019-04-30T06:30:59.113Z,29.25
2019-04-30T06:33:29.096Z,26.52
2019-04-30T06:35:59.001Z,24.95
2019-04-30T06:38:29.193Z,25.15
2019-04-30T06:40:58.856Z,24.07
2019-04-30T06:43:28.723Z,22.17
2019-04-30T06:45:59.005Z,25.88
2019-04-30T06:48:29.745Z,26.50
2019-04-30T06:50:59.227Z,25.88
2019-04-30T06:53:29.245Z,24.60
2019-04-30T06:55:59.006Z,21.52
2019-04-30T06:58:29.127Z,23.85
2019-04-30T07:00:59.561Z,21.65
2019-04-30T07:03:29.136Z,19.80
2019-04-30T07:05:58.622Z,22.27
2019-04-30T07:08:39.436Z,22.55
2019-04-30T07:11:20.453Z,21.60
2019-04-30T07:13:52.183Z,21.73
2019-04-30T07:16:21.424Z,22.60
2019-04-30T07:18:50.360Z,22.10
2019-04-30T07:21:19.823Z,20.75
2019-04-30T07:23:49.170Z,21.50
2019-04-30T07:26:19.785Z,21.25
2019-04-30T07:28:54.336Z,24.37
2019-04-30T07:31:22.016Z,23.35
2019-04-30T07:33:53.807Z,23.32
2019-04-30T07:36:21.454Z,21.37
2019-04-30T07:38:56.286Z,23.80
2019-04-30T07:41:20.910Z,34.00
2019-04-30T07:43:49.842Z,20.70
2019-04-30T07:46:19.969Z,22.82
2019-04-30T07:48:50.224Z,21.27
2019-04-30T07:51:20.979Z,21.07
2019-04-30T07:53:50.034Z,20.77
2019-04-30T07:58:50.418Z,19.20
2019-04-30T08:01:19.706Z,20.10
2019-04-30T08:04:02.714Z,19.30
2019-04-30T08:06:31.886Z,16.77
2019-04-30T08:09:01.391Z,16.30
2019-04-30T08:09:35.523Z,20.97
2019-04-30T08:11:34.423Z,16.75
2019-04-30T08:14:01.348Z,17.98
2019-04-30T08:16:30.579Z,16.17
2019-04-30T08:18:59.461Z,15.55
2019-04-30T08:21:28.776Z,17.25
2019-04-30T08:23:59.339Z,17.17
2019-04-30T08:26:28.814Z,16.05
2019-04-30T08:28:59.641Z,15.58
2019-04-30T08:31:29.204Z,18.37
2019-04-30T08:33:59.078Z,15.60
2019-04-30T08:36:29.853Z,15.55
2019-04-30T08:38:59.717Z,14.93
2019-04-30T08:41:29.364Z,13.78
2019-04-30T08:43:59.845Z,13.93
2019-04-30T08:46:28.997Z,11.75
2019-04-30T08:48:58.734Z,10.32
2019-04-30T08:51:28.775Z,12.25
2019-04-30T08:53:58.750Z,12.03
2019-04-30T08:56:29.621Z,12.85
2019-04-30T08:58:59.384Z,10.90
2019-04-30T09:01:29.390Z,11.10
2019-04-30T09:03:59.732Z,10.23
2019-04-30T09:06:29.918Z,10.90
2019-04-30T09:08:59.652Z,12.33
2019-04-30T09:11:35.493Z,9.80
2019-04-30T09:13:59.086Z,10.23
2019-04-30T09:16:29.476Z,9.48
2019-04-30T09:18:59.547Z,9.45
2019-04-30T09:21:30.024Z,10.78
2019-04-30T09:23:59.507Z,10.08
2019-04-30T09:26:29.068Z,9.10
2019-04-30T09:28:59.373Z,8.98
2019-04-30T09:31:29.631Z,11.38
2019-04-30T09:34:00.815Z,11.80
2019-04-30T09:36:29.449Z,12.58
2019-04-30T09:39:01.145Z,14.65
2019-04-30T09:41:28.968Z,14.47
2019-04-30T09:43:59.775Z,12.63
2019-04-30T09:46:29.990Z,13.25
2019-04-30T09:48:59.718Z,13.65
2019-04-30T09:51:30.658Z,13.45
2019-04-30T09:54:02.797Z,12.63
2019-04-30T09:56:30.683Z,12.78
2019-04-30T09:58:59.611Z,15.15
2019-04-30T10:01:28.743Z,14.13
2019-04-30T10:04:01.103Z,14.70
2019-04-30T10:06:38.901Z,13.98
2019-04-30T10:09:02.573Z,18.35
2019-04-30T10:11:41.914Z,16.48
2019-04-30T10:14:12.524Z,18.17
2019-04-30T10:16:55.211Z,17.15
2019-04-30T10:19:24.158Z,21.42
2019-04-30T10:21:53.507Z,17.15
2019-04-30T10:24:22.402Z,19.75
2019-04-30T10:26:51.727Z,22.55
2019-04-30T10:29:22.362Z,21.17
2019-04-30T10:31:51.736Z,20.68
2019-04-30T10:34:20.637Z,20.52
2019-04-30T10:36:50.508Z,21.25
2019-04-30T10:39:21.800Z,23.27
2019-04-30T10:41:50.162Z,18.45
2019-04-30T10:44:18.901Z,19.50
2019-04-30T10:46:47.756Z,20.48
2019-04-30T10:49:18.947Z,16.73
2019-04-30T10:51:47.016Z,18.10
2019-04-30T10:54:25.533Z,17.57
2019-04-30T10:56:46.410Z,19.55
2019-04-30T10:59:15.656Z,23.02
2019-04-30T11:01:44.602Z,22.98
2019-04-30T11:04:14.272Z,19.75
2019-04-30T11:06:43.180Z,19.20
2019-04-30T11:09:12.193Z,18.67
2019-04-30T11:11:45.442Z,19.82
2019-04-30T11:14:14.464Z,18.95
2019-04-30T11:16:43.489Z,22.00
2019-04-30T11:19:12.712Z,20.45
2019-04-30T11:21:41.950Z,27.22
2019-04-30T11:24:10.903Z,27.00
2019-04-30T11:26:41.327Z,24.80
2019-04-30T11:29:11.026Z,23.12
2019-04-30T11:31:58.289Z,26.07
2019-04-30T11:34:28.245Z,23.95
2019-04-30T11:36:57.485Z,25.60
2019-04-30T11:39:26.920Z,24.20
2019-04-30T11:41:55.807Z,22.37
2019-04-30T11:44:30.921Z,26.30
2019-04-30T11:47:01.051Z,24.35
2019-04-30T11:49:29.993Z,26.00
2019-04-30T11:51:58.971Z,23.83
2019-04-30T11:54:29.697Z,24.77
2019-04-30T11:56:58.827Z,23.57
2019-04-30T11:59:29.622Z,27.17
2019-04-30T12:01:59.977Z,26.25
2019-04-30T12:04:29.825Z,25.32
2019-04-30T12:07:00.584Z,27.50
2019-04-30T12:09:41.580Z,20.40
2019-04-30T12:12:10.500Z,21.80
2019-04-30T12:14:39.620Z,24.40
2019-04-30T12:17:08.686Z,25.77
2019-04-30T12:19:38.836Z,24.40
2019-04-30T12:22:08.137Z,23.77
2019-04-30T12:24:38.654Z,23.60
2019-04-30T12:27:07.577Z,22.70
2019-04-30T12:29:36.472Z,22.48
2019-04-30T12:32:05.607Z,23.92
2019-04-30T12:34:35.522Z,22.40
2019-04-30T12:40:05.074Z,24.92
2019-04-30T12:42:34.003Z,22.32
2019-04-30T12:45:02.902Z,21.82
2019-04-30T12:47:35.445Z,22.95
2019-04-30T12:50:09.513Z,19.55
2019-04-30T12:52:42.783Z,18.37
2019-04-30T12:57:58.670Z,18.77
2019-04-30T13:00:22.674Z,18.47
2019-04-30T13:02:51.716Z,17.77
2019-04-30T13:05:20.699Z,18.05
2019-04-30T13:07:50.814Z,19.55
2019-04-30T13:10:21.564Z,19.48
2019-04-30T13:12:51.343Z,19.10
2019-04-30T13:15:20.754Z,18.00
2019-04-30T13:17:50.117Z,16.97
2019-04-30T13:20:23.696Z,18.75
2019-04-30T13:22:49.745Z,20.60
2019-04-30T13:25:30.302Z,18.55
2019-04-30T13:27:50.794Z,20.43
2019-04-30T13:30:30.855Z,22.75
2019-04-30T13:33:10.382Z,17.37
2019-04-30T13:35:39.271Z,16.73
2019-04-30T13:38:15.953Z,17.80
2019-04-30T13:40:58.901Z,17.15
2019-04-30T13:43:46.032Z,19.17
2019-04-30T13:46:14.922Z,20.08
2019-04-30T13:48:43.853Z,21.60
2019-04-30T13:51:12.763Z,17.98
2019-04-30T13:53:41.701Z,17.95
2019-04-30T13:56:10.694Z,20.40
2019-04-30T13:58:39.624Z,21.02
2019-04-30T14:01:08.543Z,23.45
2019-04-30T14:03:41.739Z,20.17
2019-04-30T14:06:12.197Z,23.52
2019-04-30T14:08:42.714Z,19.65
2019-04-30T14:11:11.593Z,20.55
2019-04-30T14:13:40.522Z,20.30
2019-04-30T14:16:09.512Z,21.02
2019-04-30T14:18:39.022Z,21.90
2019-04-30T14:21:09.351Z,18.85
2019-04-30T14:23:39.642Z,19.52
2019-04-30T14:26:12.717Z,21.30
2019-04-30T14:31:13.600Z,17.90
2019-04-30T14:33:43.354Z,22.58
2019-04-30T14:36:14.081Z,20.45
2019-04-30T14:38:44.332Z,20.40
2019-04-30T14:41:16.084Z,19.77
2019-04-30T14:43:51.250Z,21.60
2019-04-30T14:46:31.973Z,21.50
2019-04-30T14:49:07.617Z,23.70
2019-04-30T14:51:40.375Z,21.87
2019-04-30T14:54:24.159Z,21.20
2019-04-30T14:57:11.743Z,22.95
2019-04-30T14:59:42.883Z,16.52
2019-04-30T15:02:14.438Z,18.07
2019-04-30T15:04:44.874Z,17.55
2019-04-30T15:07:15.506Z,19.85
2019-04-30T15:09:48.776Z,17.32
2019-04-30T15:14:49.341Z,16.73
2019-04-30T15:17:18.471Z,17.87
2019-04-30T15:19:54.271Z,20.02
2019-04-30T15:22:23.649Z,21.05
2019-04-30T15:24:52.718Z,19.40
2019-04-30T15:27:21.653Z,17.48
2019-04-30T15:29:57.113Z,17.12
2019-04-30T15:32:21.132Z,18.40
2019-04-30T15:34:50.020Z,16.42
2019-04-30T15:37:23.475Z,18.12
2019-04-30T15:39:52.171Z,19.48
2019-04-30T15:42:20.886Z,19.10
2019-04-30T15:44:49.832Z,18.98
2019-04-30T15:47:19.241Z,17.02
2019-04-30T15:49:48.155Z,16.35
2019-04-30T15:52:18.798Z,15.72
2019-04-30T15:54:49.087Z,18.87
2019-04-30T15:57:18.941Z,18.15
2019-04-30T15:59:48.032Z,15.08
2019-04-30T16:02:28.733Z,17.27
2019-04-30T16:05:05.187Z,17.65
2019-04-30T16:07:35.895Z,16.52
2019-04-30T16:10:11.451Z,16.48
2019-04-30T16:12:44.875Z,17.77
2019-04-30T16:17:43.433Z,16.17
2019-04-30T16:20:13.030Z,19.62
2019-04-30T16:22:41.967Z,17.48
2019-04-30T16:25:10.972Z,15.63
2019-04-30T16:27:39.895Z,18.70
2019-04-30T16:30:09.578Z,16.70
2019-04-30T16:32:38.608Z,15.83
2019-04-30T16:35:08.952Z,16.00
2019-04-30T16:37:38.760Z,18.20
2019-04-30T16:40:08.295Z,18.48
2019-04-30T16:42:39.057Z,17.27
2019-04-30T16:45:09.355Z,15.40
2019-04-30T16:47:38.388Z,18.10
2019-04-30T16:50:08.998Z,19.92
2019-04-30T16:52:39.382Z,17.32
2019-04-30T16:55:08.530Z,16.75
2019-04-30T16:57:39.574Z,17.15
2019-04-30T17:00:09.714Z,17.52
2019-04-30T17:02:40.166Z,15.08
2019-04-30T17:05:13.703Z,16.30
2019-04-30T17:07:44.170Z,17.32
2019-04-30T17:10:31.008Z,16.55
2019-04-30T17:13:01.508Z,18.23
2019-04-30T17:15:34.728Z,17.25
2019-04-30T17:20:32.314Z,19.70
2019-04-30T17:23:04.542Z,14.87
2019-04-30T17:25:33.610Z,18.42
2019-04-30T17:28:02.487Z,19.70
2019-04-30T17:30:31.432Z,16.25
2019-04-30T17:33:00.322Z,18.85
2019-04-30T17:35:29.258Z,15.63
2019-04-30T17:37:58.174Z,15.10
2019-04-30T17:40:29.153Z,13.98
2019-04-30T17:42:58.277Z,16.37
2019-04-30T17:45:29.047Z,15.28
2019-04-30T17:47:57.742Z,17.77
2019-04-30T17:50:26.694Z,16.60
2019-04-30T17:52:55.571Z,15.48
2019-04-30T17:55:24.521Z,18.02
2019-04-30T17:57:55.005Z,14.10
2019-04-30T18:00:25.001Z,14.33
2019-04-30T18:02:53.937Z,20.15
2019-04-30T18:05:22.831Z,16.80
2019-04-30T18:07:51.768Z,15.25
2019-04-30T18:10:21.758Z,17.25
2019-04-30T18:12:50.796Z,21.35
2019-04-30T18:15:21.468Z,17.82
2019-04-30T18:17:52.067Z,16.48
2019-04-30T18:20:25.563Z,15.72
2019-04-30T18:22:56.078Z,21.33
2019-04-30T18:25:35.515Z,20.55
2019-04-30T18:28:05.158Z,19.80
2019-04-30T18:30:35.622Z,19.23
2019-04-30T18:33:04.854Z,16.23
2019-04-30T18:35:34.153Z,19.90
2019-04-30T18:38:03.101Z,16.65
2019-04-30T18:40:32.185Z,18.27
2019-04-30T18:43:01.119Z,16.07
2019-04-30T18:45:30.009Z,19.48
2019-04-30T18:47:59.454Z,20.05
2019-04-30T18:50:29.477Z,20.15
2019-04-30T18:52:59.986Z,18.70
2019-04-30T18:55:28.875Z,15.68
2019-04-30T18:58:01.180Z,18.32
2019-04-30T19:00:32.762Z,20.95
2019-04-30T19:05:31.155Z,21.95
2019-04-30T19:08:04.664Z,24.18
2019-04-30T19:10:51.778Z,22.37
2019-04-30T19:13:34.114Z,23.12
2019-04-30T19:16:22.424Z,26.10
2019-04-30T19:19:00.942Z,21.48
2019-04-30T19:21:30.117Z,22.85
2019-04-30T19:23:59.054Z,24.30
2019-04-30T19:26:29.268Z,26.73
2019-04-30T19:28:58.375Z,24.10
2019-04-30T19:31:27.259Z,25.60
2019-04-30T19:33:58.889Z,23.45
2019-04-30T19:36:35.135Z,24.35
2019-04-30T19:38:59.767Z,27.80
2019-04-30T19:41:28.941Z,28.20
2019-04-30T19:43:57.826Z,25.10
2019-04-30T19:46:26.750Z,27.48
2019-04-30T19:48:55.647Z,30.27
2019-04-30T19:51:24.592Z,28.70
2019-04-30T19:53:53.469Z,29.32
2019-04-30T19:56:22.429Z,26.15
2019-04-30T19:59:01.733Z,23.65
2019-04-30T20:01:22.016Z,26.40
2019-04-30T20:03:53.336Z,24.47
2019-04-30T20:06:22.275Z,27.93
2019-04-30T20:08:51.228Z,29.02
2019-04-30T20:11:20.148Z,27.75
2019-04-30T20:13:50.508Z,25.08
2019-04-30T20:16:19.687Z,26.02
2019-04-30T20:18:49.140Z,26.05
2019-04-30T20:21:28.083Z,27.85
2019-04-30T20:23:51.324Z,26.48
2019-04-30T20:26:20.232Z,28.23
2019-04-30T20:28:49.233Z,25.48
2019-04-30T20:31:19.006Z,25.08
2019-04-30T20:33:48.934Z,30.17
2019-04-30T20:36:19.079Z,27.32
2019-04-30T20:38:55.522Z,26.70
2019-04-30T20:41:26.070Z,25.35
2019-04-30T20:43:55.003Z,25.50
2019-04-30T20:46:34.675Z,25.40
2019-04-30T20:48:54.517Z,25.15
2019-04-30T20:51:25.771Z,25.85
2019-04-30T20:53:54.696Z,25.20
2019-04-30T20:56:31.422Z,25.20
2019-04-30T20:59:05.282Z,27.42
2019-04-30T21:01:30.999Z,25.80
2019-04-30T21:04:00.042Z,29.70
2019-04-30T21:06:29.750Z,25.68
2019-04-30T21:09:00.973Z,27.45
2019-04-30T21:11:29.691Z,27.58
2019-04-30T21:13:59.177Z,27.00
2019-04-30T21:16:28.601Z,27.60
2019-04-30T21:18:59.239Z,26.82
2019-04-30T21:21:28.755Z,27.93
2019-04-30T21:24:00.944Z,27.58
2019-04-30T21:26:37.333Z,31.80
2019-04-30T21:29:13.646Z,28.87
2019-04-30T21:31:47.464Z,28.83
2019-04-30T21:34:24.048Z,26.45
2019-04-30T21:36:53.113Z,28.07
2019-04-30T21:39:22.190Z,31.57
2019-04-30T21:41:51.278Z,29.92
2019-04-30T21:44:20.432Z,27.07
2019-04-30T21:46:58.499Z,29.35
2019-04-30T21:49:30.378Z,27.22
2019-04-30T21:52:07.055Z,28.05
2019-04-30T21:54:35.795Z,30.32
2019-04-30T21:57:10.579Z,31.25
2019-04-30T21:59:41.410Z,28.70
2019-04-30T22:02:11.949Z,30.02
2019-04-30T22:04:42.339Z,28.38
2019-04-30T22:07:15.935Z,27.22
2019-04-30T22:09:45.011Z,26.80
2019-04-30T22:12:14.102Z,27.35
2019-04-30T22:17:33.398Z,25.70
2019-04-30T22:20:09.884Z,28.73
2019-04-30T22:22:39.169Z,30.17
2019-04-30T22:25:09.800Z,28.27
2019-04-30T22:27:43.082Z,28.77
2019-04-30T22:32:46.663Z,28.70
2019-04-30T22:35:28.560Z,25.88
2019-04-30T22:38:10.978Z,30.62
2019-04-30T22:40:39.962Z,26.45
2019-04-30T22:43:09.415Z,30.05
2019-04-30T22:45:40.540Z,27.98
2019-04-30T22:48:09.726Z,30.65
2019-04-30T22:50:39.169Z,28.75
2019-04-30T22:53:08.342Z,30.97
2019-04-30T22:55:38.819Z,28.35
2019-04-30T22:58:07.710Z,27.40
2019-04-30T23:00:40.149Z,30.23
2019-04-30T23:03:11.196Z,33.80
2019-04-30T23:05:40.233Z,31.77
2019-04-30T23:08:14.679Z,31.90
2019-04-30T23:10:43.254Z,31.57
2019-04-30T23:13:12.301Z,28.77
2019-04-30T23:15:41.402Z,29.70
2019-04-30T23:18:10.534Z,28.87
2019-04-30T23:20:42.028Z,30.02
2019-04-30T23:23:10.971Z,35.45
2019-04-30T23:25:39.928Z,28.73
2019-04-30T23:28:09.273Z,28.87
2019-04-30T23:30:38.257Z,34.18
2019-04-30T23:33:07.250Z,31.50
2019-04-30T23:35:36.348Z,31.68
2019-04-30T23:38:05.459Z,29.35
2019-04-30T23:40:49.828Z,30.27
2019-04-30T23:43:19.443Z,31.15
2019-04-30T23:45:48.636Z,31.55
2019-04-30T23:48:17.610Z,28.85
2019-04-30T23:50:46.495Z,29.75
2019-04-30T23:53:15.425Z,31.37
2019-04-30T23:55:44.313Z,30.15
2019-04-30T23:58:13.266Z,28.73
